createdAt,value
2017-07-20T00:04:01.916Z,7.43
2017-07-20T00:06:29.865Z,7.07
2017-07-20T00:08:57.787Z,7.53
2017-07-20T00:11:25.722Z,7.00
2017-07-20T00:13:53.660Z,6.23
2017-07-20T00:16:21.603Z,6.93
2017-07-20T00:18:49.577Z,6.00
2017-07-20T00:21:17.507Z,6.90
2017-07-20T00:23:45.450Z,7.03
2017-07-20T00:26:13.374Z,7.37
2017-07-20T00:28:41.305Z,7.03
2017-07-20T00:31:09.259Z,7.40
2017-07-20T00:33:37.186Z,7.20
2017-07-20T00:36:05.109Z,7.10
2017-07-20T00:38:33.042Z,6.40
2017-07-20T00:41:00.983Z,6.83
2017-07-20T00:43:28.931Z,6.97
2017-07-20T00:45:56.974Z,6.90
2017-07-20T00:48:24.903Z,8.23
2017-07-20T00:50:52.830Z,5.90
2017-07-20T00:53:20.762Z,7.00
2017-07-20T00:55:48.726Z,6.33
2017-07-20T00:58:16.743Z,6.50
2017-07-20T01:00:44.678Z,6.30
2017-07-20T01:03:12.612Z,6.30
2017-07-20T01:05:40.579Z,6.37
2017-07-20T01:08:08.528Z,6.00
2017-07-20T01:10:36.456Z,6.03
2017-07-20T01:13:04.391Z,6.83
2017-07-20T01:15:32.333Z,6.47
2017-07-20T01:18:00.255Z,6.10
2017-07-20T01:20:28.179Z,6.00
2017-07-20T01:22:57.895Z,5.83
2017-07-20T01:25:25.835Z,6.70
2017-07-20T01:27:53.798Z,5.97
2017-07-20T01:30:21.742Z,6.37
2017-07-20T01:32:49.675Z,5.87
2017-07-20T01:35:17.595Z,5.93
2017-07-20T01:37:45.546Z,5.77
2017-07-20T01:40:13.478Z,5.80
2017-07-20T01:42:41.390Z,6.00
2017-07-20T01:45:09.329Z,5.50
2017-07-20T01:47:37.264Z,6.03
2017-07-20T01:50:05.217Z,6.73
2017-07-20T01:52:33.151Z,5.87
2017-07-20T01:55:01.080Z,5.70
2017-07-20T01:57:29.018Z,5.97
2017-07-20T01:59:56.943Z,5.70
2017-07-20T02:02:24.933Z,6.00
2017-07-20T02:04:52.867Z,5.30
2017-07-20T02:07:20.798Z,5.47
2017-07-20T02:09:48.723Z,5.93
2017-07-20T02:12:16.688Z,6.07
2017-07-20T02:14:44.653Z,5.50
2017-07-20T02:17:12.577Z,5.73
2017-07-20T02:19:40.495Z,5.93
2017-07-20T02:22:08.419Z,5.70
2017-07-20T02:24:36.334Z,5.80
2017-07-20T02:27:04.270Z,5.50
2017-07-20T02:29:32.181Z,5.20
2017-07-20T02:32:00.098Z,5.40
2017-07-20T02:34:28.023Z,5.27
2017-07-20T02:36:55.944Z,5.90
2017-07-20T02:39:23.883Z,5.17
2017-07-20T02:41:51.807Z,5.27
2017-07-20T02:44:19.726Z,5.03
2017-07-20T02:46:47.645Z,5.47
2017-07-20T02:49:15.577Z,5.10
2017-07-20T02:51:43.541Z,4.90
2017-07-20T02:54:11.470Z,5.30
2017-07-20T02:56:39.400Z,4.53
2017-07-20T02:59:07.338Z,4.60
2017-07-20T03:01:35.301Z,5.20
2017-07-20T03:04:03.245Z,5.53
2017-07-20T03:06:31.180Z,5.00
2017-07-20T03:08:59.106Z,4.80
2017-07-20T03:11:27.030Z,5.60
2017-07-20T03:13:54.988Z,5.00
2017-07-20T03:16:22.929Z,5.20
2017-07-20T03:18:50.849Z,5.00
2017-07-20T03:21:18.782Z,4.87
2017-07-20T03:23:46.702Z,5.40
2017-07-20T03:26:14.630Z,4.53
2017-07-20T03:28:42.570Z,5.00
2017-07-20T03:31:10.483Z,4.80
2017-07-20T03:33:38.413Z,4.93
2017-07-20T03:36:06.339Z,4.97
2017-07-20T03:38:34.275Z,5.13
2017-07-20T03:41:02.242Z,5.20
2017-07-20T03:43:30.174Z,4.90
2017-07-20T03:45:58.098Z,4.80
2017-07-20T03:48:26.032Z,4.80
2017-07-20T03:50:53.941Z,5.47
2017-07-20T03:53:21.886Z,5.17
2017-07-20T03:55:49.818Z,4.77
2017-07-20T03:58:17.742Z,5.10
2017-07-20T04:00:45.673Z,5.03
2017-07-20T04:03:13.614Z,4.80
2017-07-20T04:05:41.567Z,4.63
2017-07-20T04:08:09.507Z,4.23
2017-07-20T04:10:37.423Z,4.73
2017-07-20T04:13:05.348Z,4.43
2017-07-20T04:15:33.278Z,4.70
2017-07-20T04:18:01.200Z,4.60
2017-07-20T04:20:29.135Z,4.93
2017-07-20T04:22:57.105Z,4.57
2017-07-20T04:25:25.023Z,5.00
2017-07-20T04:27:52.950Z,4.93
2017-07-20T04:30:20.869Z,4.47
2017-07-20T04:32:49.011Z,4.30
2017-07-20T04:35:16.956Z,4.70
2017-07-20T04:37:44.874Z,4.70
2017-07-20T04:40:12.794Z,4.37
2017-07-20T04:42:40.710Z,4.20
2017-07-20T04:45:08.627Z,4.07
2017-07-20T04:47:36.577Z,4.50
2017-07-20T04:50:04.502Z,4.40
2017-07-20T04:52:32.447Z,4.57
2017-07-20T04:55:00.382Z,4.40
2017-07-20T04:57:28.314Z,4.57
2017-07-20T04:59:56.304Z,4.67
2017-07-20T05:02:24.261Z,4.33
2017-07-20T05:04:52.187Z,4.67
2017-07-20T05:07:20.142Z,4.50
2017-07-20T05:09:48.067Z,3.93
2017-07-20T05:12:16.010Z,4.50
2017-07-20T05:14:43.942Z,4.37
2017-07-20T05:17:11.867Z,4.30
2017-07-20T05:19:39.791Z,4.30
2017-07-20T05:22:07.726Z,4.10
2017-07-20T05:24:35.680Z,4.13
2017-07-20T05:27:03.617Z,4.60
2017-07-20T05:29:31.566Z,4.07
2017-07-20T05:31:59.498Z,4.23
2017-07-20T05:34:27.458Z,4.40
2017-07-20T05:36:55.460Z,4.37
2017-07-20T05:39:23.434Z,4.03
2017-07-20T05:41:51.374Z,4.60
2017-07-20T05:44:19.797Z,3.90
2017-07-20T05:46:47.789Z,4.57
2017-07-20T05:49:15.743Z,9.17
2017-07-20T05:51:43.731Z,10.83
2017-07-20T05:54:11.698Z,12.03
2017-07-20T05:56:39.651Z,13.23
2017-07-20T05:59:07.600Z,14.50
2017-07-20T06:01:35.545Z,14.70
2017-07-20T06:04:03.506Z,14.47
2017-07-20T06:06:31.457Z,15.07
2017-07-20T06:08:59.427Z,14.33
2017-07-20T06:11:27.366Z,13.63
2017-07-20T06:13:55.323Z,13.87
2017-07-20T06:16:23.282Z,14.13
2017-07-20T06:18:51.219Z,13.90
2017-07-20T06:21:19.206Z,14.70
2017-07-20T06:23:47.226Z,15.10
2017-07-20T06:26:15.202Z,15.03
2017-07-20T06:28:43.810Z,14.63
2017-07-20T06:31:11.755Z,17.20
2017-07-20T06:33:39.694Z,19.43
2017-07-20T06:36:07.643Z,20.53
2017-07-20T06:38:35.599Z,21.13
2017-07-20T06:41:03.536Z,21.13
2017-07-20T06:43:31.477Z,20.93
2017-07-20T06:45:59.492Z,23.30
2017-07-20T06:48:27.443Z,21.10
2017-07-20T06:50:55.409Z,20.50
2017-07-20T06:53:23.711Z,20.47
2017-07-20T06:55:52.880Z,21.60
2017-07-20T06:58:28.011Z,19.80
2017-07-20T07:00:55.958Z,21.30
2017-07-20T07:03:23.927Z,19.80
2017-07-20T07:05:51.882Z,20.90
2017-07-20T07:08:22.868Z,20.47
2017-07-20T07:10:50.841Z,21.27
2017-07-20T07:13:18.782Z,24.03
2017-07-20T07:15:46.737Z,24.30
2017-07-20T07:18:14.687Z,24.27
2017-07-20T07:20:42.639Z,20.80
2017-07-20T07:23:10.594Z,22.07
2017-07-20T07:25:38.549Z,22.70
2017-07-20T07:28:06.556Z,24.20
2017-07-20T07:30:34.599Z,25.53
2017-07-20T07:33:02.587Z,26.60
2017-07-20T07:35:30.704Z,28.23
2017-07-20T07:37:58.669Z,28.30
2017-07-20T07:40:26.642Z,26.40
2017-07-20T07:42:54.574Z,27.50
2017-07-20T07:45:22.637Z,27.13
2017-07-20T07:47:50.605Z,25.13
2017-07-20T07:50:18.766Z,19.70
2017-07-20T07:52:46.754Z,15.10
2017-07-20T07:55:14.690Z,10.53
2017-07-20T07:57:42.638Z,7.93
2017-07-20T08:00:10.576Z,5.63
2017-07-20T08:02:38.502Z,7.27
2017-07-20T08:05:06.482Z,7.60
2017-07-20T08:07:34.441Z,6.87
2017-07-20T08:10:02.393Z,9.20
2017-07-20T08:12:30.336Z,12.07
2017-07-20T08:14:58.279Z,13.07
2017-07-20T08:17:26.239Z,13.93
2017-07-20T08:19:54.230Z,18.33
2017-07-20T08:22:22.158Z,17.47
2017-07-20T08:24:50.101Z,19.50
2017-07-20T08:27:18.162Z,23.00
2017-07-20T08:29:46.423Z,25.20
2017-07-20T08:32:14.529Z,27.60
2017-07-20T08:34:42.534Z,28.80
2017-07-20T08:37:10.486Z,26.93
2017-07-20T08:39:38.434Z,29.00
2017-07-20T08:42:06.384Z,35.87
2017-07-20T08:44:34.315Z,33.37
2017-07-20T08:47:02.279Z,33.20
2017-07-20T08:49:30.271Z,32.73
2017-07-20T08:51:58.504Z,32.10
2017-07-20T08:54:26.622Z,31.30
2017-07-20T08:56:54.585Z,29.47
2017-07-20T08:59:22.713Z,25.93
2017-07-20T09:01:50.879Z,27.20
2017-07-20T09:04:18.971Z,23.87
2017-07-20T09:06:46.930Z,21.30
2017-07-20T09:09:14.867Z,19.57
2017-07-20T09:11:42.827Z,19.00
2017-07-20T09:14:10.833Z,16.20
2017-07-20T09:16:38.763Z,15.87
2017-07-20T09:19:06.716Z,16.03
2017-07-20T09:21:34.680Z,14.50
2017-07-20T09:24:02.655Z,14.40
2017-07-20T09:26:30.622Z,14.00
2017-07-20T09:28:58.563Z,13.80
2017-07-20T09:31:26.492Z,15.07
2017-07-20T09:33:56.013Z,13.83
2017-07-20T09:36:24.658Z,14.00
2017-07-20T09:38:52.611Z,13.23
2017-07-20T09:41:20.564Z,14.33
2017-07-20T09:43:48.510Z,12.43
2017-07-20T09:46:16.728Z,13.90
2017-07-20T09:48:44.678Z,13.00
2017-07-20T09:51:12.642Z,11.50
2017-07-20T09:53:40.586Z,10.73
2017-07-20T09:56:08.609Z,10.90
2017-07-20T09:58:36.564Z,10.57
2017-07-20T10:01:04.509Z,11.67
2017-07-20T10:03:32.475Z,10.40
2017-07-20T10:06:00.410Z,10.27
2017-07-20T10:08:28.479Z,10.63
2017-07-20T10:10:57.176Z,10.57
2017-07-20T10:13:25.114Z,10.50
2017-07-20T10:15:53.070Z,11.37
2017-07-20T10:18:20.999Z,11.20
2017-07-20T10:20:48.942Z,13.40
2017-07-20T10:23:16.908Z,12.40
2017-07-20T10:25:44.878Z,13.73
2017-07-20T10:28:12.882Z,15.20
2017-07-20T10:30:40.817Z,18.40
2017-07-20T10:33:08.772Z,16.10
2017-07-20T10:35:36.898Z,15.80
2017-07-20T10:38:04.832Z,15.00
2017-07-20T10:40:32.824Z,12.03
2017-07-20T10:43:00.775Z,11.13
2017-07-20T10:45:29.920Z,10.30
2017-07-20T10:47:57.905Z,7.53
2017-07-20T10:50:25.875Z,6.40
2017-07-20T10:52:53.874Z,5.40
2017-07-20T10:55:21.849Z,4.33
2017-07-20T10:57:49.842Z,3.73
2017-07-20T11:00:17.787Z,4.33
2017-07-20T11:02:45.743Z,3.23
2017-07-20T11:05:13.703Z,3.87
2017-07-20T11:07:41.628Z,2.90
2017-07-20T11:10:09.595Z,3.70
2017-07-20T11:12:37.528Z,3.50
2017-07-20T11:15:05.462Z,3.60
2017-07-20T11:17:33.459Z,3.83
2017-07-20T11:20:01.415Z,4.03
2017-07-20T11:22:29.351Z,4.10
2017-07-20T11:24:59.083Z,3.90
2017-07-20T11:27:27.518Z,4.03
2017-07-20T11:29:55.472Z,3.87
2017-07-20T11:32:23.427Z,4.13
2017-07-20T11:34:51.375Z,3.80
2017-07-20T11:37:19.323Z,4.67
2017-07-20T11:39:47.279Z,3.50
2017-07-20T11:42:15.219Z,4.10
2017-07-20T11:44:43.154Z,3.83
2017-07-20T11:47:11.100Z,4.40
2017-07-20T11:49:39.082Z,4.07
2017-07-20T11:52:07.020Z,3.80
2017-07-20T11:54:34.951Z,3.83
2017-07-20T11:57:02.890Z,4.30
2017-07-20T11:59:30.829Z,3.70
2017-07-20T12:01:58.831Z,3.77
2017-07-20T12:04:26.781Z,4.20
2017-07-20T12:06:54.724Z,3.93
2017-07-20T12:09:22.666Z,3.60
2017-07-20T12:11:50.600Z,4.00
2017-07-20T12:14:18.582Z,3.77
2017-07-20T12:16:46.522Z,3.90
2017-07-20T12:19:14.475Z,3.60
2017-07-20T12:21:42.527Z,4.70
2017-07-20T12:24:10.555Z,3.93
2017-07-20T12:26:38.522Z,4.40
2017-07-20T12:29:06.478Z,4.50
2017-07-20T12:31:34.448Z,4.20
2017-07-20T12:34:02.557Z,4.83
2017-07-20T12:36:30.501Z,5.00
2017-07-20T12:38:58.464Z,4.90
2017-07-20T12:41:26.404Z,5.13
2017-07-20T12:43:54.355Z,5.20
2017-07-20T12:46:22.324Z,5.00
2017-07-20T12:48:50.298Z,5.57
2017-07-20T12:51:18.261Z,4.90
2017-07-20T12:53:46.234Z,5.10
2017-07-20T12:56:14.210Z,4.67
2017-07-20T12:58:42.148Z,5.00
2017-07-20T13:01:10.174Z,5.23
2017-07-20T13:03:38.148Z,4.63
2017-07-20T13:06:06.134Z,4.03
2017-07-20T13:08:34.078Z,4.40
2017-07-20T13:11:02.019Z,5.13
2017-07-20T13:13:29.958Z,4.20
2017-07-20T13:15:57.982Z,4.30
2017-07-20T13:18:25.928Z,4.33
2017-07-20T13:20:53.870Z,4.83
2017-07-20T13:23:21.821Z,4.20
2017-07-20T13:25:49.826Z,4.20
2017-07-20T13:28:17.794Z,4.77
2017-07-20T13:30:45.742Z,4.17
2017-07-20T13:33:13.705Z,4.00
2017-07-20T13:35:41.648Z,4.00
2017-07-20T13:38:09.635Z,4.70
2017-07-20T13:40:37.695Z,4.10
2017-07-20T13:43:05.658Z,3.67
2017-07-20T13:45:33.858Z,3.50
2017-07-20T13:48:01.802Z,4.10
2017-07-20T13:50:29.767Z,3.80
2017-07-20T13:52:57.779Z,3.73
2017-07-20T13:55:25.743Z,3.73
2017-07-20T13:57:53.694Z,3.63
2017-07-20T14:00:21.634Z,3.40
2017-07-20T14:02:49.586Z,3.13
2017-07-20T14:05:17.572Z,2.50
2017-07-20T14:07:45.519Z,2.47
2017-07-20T14:10:13.461Z,2.57
2017-07-20T14:12:41.398Z,2.30
2017-07-20T14:15:09.331Z,2.50
2017-07-20T14:17:37.293Z,2.30
2017-07-20T14:20:05.241Z,2.90
2017-07-20T14:22:33.214Z,2.43
2017-07-20T14:25:01.144Z,2.70
2017-07-20T14:27:29.090Z,2.23
2017-07-20T14:29:57.070Z,2.73
2017-07-20T14:32:25.000Z,2.63
2017-07-20T14:34:52.949Z,2.30
2017-07-20T14:37:20.941Z,2.03
2017-07-20T14:39:48.878Z,2.13
2017-07-20T14:42:16.844Z,2.10
2017-07-20T14:44:45.502Z,2.37
2017-07-20T14:47:13.434Z,2.40
2017-07-20T14:49:41.377Z,1.93
2017-07-20T14:52:09.307Z,2.00
2017-07-20T14:54:37.279Z,1.97
2017-07-20T14:57:05.423Z,2.07
2017-07-20T14:59:33.378Z,2.00
2017-07-20T15:02:01.332Z,2.50
2017-07-20T15:04:29.271Z,2.57
2017-07-20T15:06:57.226Z,1.83
2017-07-20T15:09:25.195Z,2.27
2017-07-20T15:11:53.186Z,2.23
2017-07-20T15:14:21.147Z,2.27
2017-07-20T15:16:49.106Z,2.23
2017-07-20T15:19:17.082Z,2.03
2017-07-20T15:21:45.035Z,2.00
2017-07-20T15:24:13.019Z,1.80
2017-07-20T15:26:40.996Z,1.70
2017-07-20T15:29:08.976Z,1.60
2017-07-20T15:31:36.954Z,1.83
2017-07-20T15:34:04.885Z,1.90
2017-07-20T15:36:32.833Z,2.40
2017-07-20T15:39:00.802Z,2.00
2017-07-20T15:41:28.758Z,1.97
2017-07-20T15:43:56.868Z,1.97
2017-07-20T15:46:24.819Z,2.00
2017-07-20T15:48:52.793Z,2.00
2017-07-20T15:51:20.755Z,1.87
2017-07-20T15:53:48.690Z,1.93
2017-07-20T15:56:16.654Z,2.03
2017-07-20T15:58:44.626Z,2.20
2017-07-20T16:01:12.550Z,2.40
2017-07-20T16:03:40.514Z,2.43
2017-07-20T16:06:08.458Z,2.62
2017-07-20T16:08:36.427Z,2.77
2017-07-20T16:11:04.366Z,2.70
2017-07-20T16:13:32.319Z,2.30
2017-07-20T16:16:00.258Z,3.03
2017-07-20T16:18:28.196Z,2.90
2017-07-20T16:20:56.141Z,2.30
2017-07-20T16:23:24.075Z,2.10
2017-07-20T16:25:52.034Z,1.70
2017-07-20T16:28:19.982Z,1.90
2017-07-20T16:30:47.945Z,2.20
2017-07-20T16:33:15.919Z,1.93
2017-07-20T16:35:43.859Z,2.70
2017-07-20T16:38:11.859Z,2.57
2017-07-20T16:40:39.806Z,2.73
2017-07-20T16:43:07.774Z,3.53
2017-07-20T16:45:35.738Z,2.60
2017-07-20T16:48:03.671Z,2.80
2017-07-20T16:50:31.644Z,3.50
2017-07-20T16:52:59.609Z,3.47
2017-07-20T16:55:27.551Z,3.97
2017-07-20T16:57:55.507Z,2.77
2017-07-20T17:00:23.482Z,2.70
2017-07-20T17:02:51.446Z,2.43
2017-07-20T17:05:19.407Z,2.90
2017-07-20T17:07:47.370Z,2.20
2017-07-20T17:10:15.322Z,2.20
2017-07-20T17:12:43.251Z,2.87
2017-07-20T17:15:11.222Z,3.37
2017-07-20T17:17:39.167Z,2.70
2017-07-20T17:20:07.114Z,3.70
2017-07-20T17:22:35.076Z,2.60
2017-07-20T17:25:03.033Z,2.80
2017-07-20T17:27:31.018Z,2.87
2017-07-20T17:29:59.018Z,3.20
2017-07-20T17:32:26.991Z,2.97
2017-07-20T17:34:54.950Z,2.93
2017-07-20T17:37:22.899Z,3.00
2017-07-20T17:39:50.887Z,2.60
2017-07-20T17:42:18.861Z,2.80
2017-07-20T17:44:46.805Z,2.60
2017-07-20T17:47:14.777Z,3.30
2017-07-20T17:49:42.716Z,3.10
2017-07-20T17:52:10.699Z,2.80
2017-07-20T17:54:38.671Z,2.87
2017-07-20T17:57:06.643Z,2.50
2017-07-20T17:59:34.609Z,2.40
2017-07-20T18:02:02.575Z,2.50
2017-07-20T18:04:30.551Z,2.33
2017-07-20T18:06:58.515Z,2.70
2017-07-20T18:09:26.431Z,2.30
2017-07-20T18:11:54.378Z,2.40
2017-07-20T18:14:22.337Z,2.60
2017-07-20T18:16:50.319Z,2.43
2017-07-20T18:19:18.273Z,2.50
2017-07-20T18:21:46.229Z,3.40
2017-07-20T18:24:14.216Z,3.27
2017-07-20T18:26:42.186Z,4.40
2017-07-20T18:29:10.179Z,2.63
2017-07-20T18:31:38.136Z,2.70
2017-07-20T18:34:06.098Z,2.60
2017-07-20T18:36:34.045Z,2.83
2017-07-20T18:39:02.019Z,3.07
2017-07-20T18:41:30.123Z,3.40
2017-07-20T18:43:58.082Z,2.67
2017-07-20T18:46:26.031Z,2.93
2017-07-20T18:48:54.039Z,3.00
2017-07-20T18:51:21.980Z,2.53
2017-07-20T18:53:50.039Z,2.60
2017-07-20T18:56:17.995Z,3.70
2017-07-20T18:58:45.961Z,3.47
2017-07-20T19:01:13.916Z,2.50
2017-07-20T19:03:41.875Z,3.53
2017-07-20T19:06:09.864Z,3.30
2017-07-20T19:08:37.825Z,3.13
2017-07-20T19:11:05.789Z,3.33
2017-07-20T19:13:33.762Z,3.33
2017-07-20T19:16:01.730Z,4.30
2017-07-20T19:18:29.962Z,3.50
2017-07-20T19:20:57.923Z,3.33
2017-07-20T19:23:25.938Z,3.47
2017-07-20T19:25:53.911Z,3.80
2017-07-20T19:28:21.884Z,4.30
2017-07-20T19:30:49.879Z,3.47
2017-07-20T19:33:17.852Z,3.80
2017-07-20T19:35:45.828Z,4.00
2017-07-20T19:38:13.795Z,4.17
2017-07-20T19:40:41.747Z,4.30
2017-07-20T19:43:09.722Z,4.70
2017-07-20T19:45:37.996Z,4.30
2017-07-20T19:48:05.962Z,4.20
2017-07-20T19:50:33.913Z,3.10
2017-07-20T19:53:01.949Z,3.47
2017-07-20T19:55:29.897Z,4.27
2017-07-20T19:57:57.841Z,2.97
2017-07-20T20:00:25.836Z,3.20
2017-07-20T20:02:54.608Z,2.90
2017-07-20T20:05:22.655Z,3.70
2017-07-20T20:07:50.613Z,3.10
2017-07-20T20:10:18.578Z,3.50
2017-07-20T20:12:46.559Z,3.53
2017-07-20T20:15:14.510Z,3.60
2017-07-20T20:17:42.455Z,2.83
2017-07-20T20:20:10.406Z,3.00
2017-07-20T20:22:38.336Z,2.97
2017-07-20T20:25:06.295Z,2.93
2017-07-20T20:27:34.230Z,2.90
2017-07-20T20:30:02.182Z,3.40
2017-07-20T20:32:30.127Z,3.60
2017-07-20T20:34:58.138Z,2.83
2017-07-20T20:37:26.143Z,2.27
2017-07-20T20:39:54.349Z,3.00
2017-07-20T20:42:22.303Z,2.60
2017-07-20T20:44:50.314Z,3.30
2017-07-20T20:47:18.259Z,2.80
2017-07-20T20:49:46.265Z,2.90
2017-07-20T20:52:14.356Z,3.13
2017-07-20T20:54:42.305Z,2.63
2017-07-20T20:57:10.255Z,2.20
2017-07-20T20:59:38.209Z,2.90
2017-07-20T21:02:06.190Z,2.73
2017-07-20T21:04:34.122Z,2.77
2017-07-20T21:07:02.049Z,2.30
2017-07-20T21:09:29.986Z,2.50
2017-07-20T21:11:57.921Z,2.80
2017-07-20T21:14:25.919Z,3.00
2017-07-20T21:16:53.867Z,3.20
2017-07-20T21:19:21.807Z,3.53
2017-07-20T21:21:49.774Z,2.87
2017-07-20T21:24:17.738Z,2.60
2017-07-20T21:26:45.700Z,3.03
2017-07-20T21:29:13.625Z,2.90
2017-07-20T21:31:41.559Z,3.17
2017-07-20T21:34:09.496Z,3.13
2017-07-20T21:36:37.427Z,3.00
2017-07-20T21:39:05.426Z,3.93
2017-07-20T21:41:33.375Z,2.63
2017-07-20T21:44:01.305Z,3.67
2017-07-20T21:46:29.238Z,2.97
2017-07-20T21:48:57.220Z,2.90
2017-07-20T21:51:25.186Z,2.27
2017-07-20T21:53:53.141Z,2.63
2017-07-20T21:56:21.091Z,2.97
2017-07-20T21:58:49.027Z,3.13
2017-07-20T22:01:16.999Z,2.47
2017-07-20T22:03:44.979Z,2.10
2017-07-20T22:06:12.946Z,2.17
2017-07-20T22:08:40.910Z,2.33
2017-07-20T22:11:08.870Z,2.00
2017-07-20T22:13:36.819Z,2.13
2017-07-20T22:16:04.797Z,2.37
2017-07-20T22:18:32.730Z,2.37
2017-07-20T22:21:00.659Z,2.20
2017-07-20T22:23:28.610Z,1.90
2017-07-20T22:25:56.550Z,2.10
2017-07-20T22:28:24.511Z,2.63
2017-07-20T22:30:52.429Z,2.13
2017-07-20T22:33:20.373Z,2.27
2017-07-20T22:35:48.308Z,2.03
2017-07-20T22:38:16.234Z,2.13
2017-07-20T22:40:44.211Z,1.70
2017-07-20T22:43:12.149Z,2.23
2017-07-20T22:45:40.096Z,2.10
2017-07-20T22:48:08.068Z,2.20
2017-07-20T22:50:36.022Z,2.03
2017-07-20T22:53:04.010Z,1.70
2017-07-20T22:55:31.937Z,1.87
2017-07-20T22:57:59.894Z,2.10
2017-07-20T23:00:27.833Z,1.93
2017-07-20T23:02:55.759Z,2.10
2017-07-20T23:05:23.710Z,2.10
2017-07-20T23:07:51.694Z,2.20
2017-07-20T23:10:19.693Z,2.13
2017-07-20T23:12:47.639Z,1.90
2017-07-20T23:15:15.569Z,2.13
2017-07-20T23:17:43.519Z,1.77
2017-07-20T23:20:11.469Z,1.70
2017-07-20T23:22:39.424Z,1.63
2017-07-20T23:25:07.350Z,1.70
2017-07-20T23:27:35.501Z,1.97
2017-07-20T23:30:03.423Z,1.70
2017-07-20T23:32:31.350Z,1.80
2017-07-20T23:34:59.334Z,1.43
2017-07-20T23:37:27.280Z,1.80
2017-07-20T23:39:55.293Z,1.60
2017-07-20T23:42:23.238Z,2.00
2017-07-20T23:44:51.175Z,1.83
2017-07-20T23:47:19.126Z,1.87
2017-07-20T23:49:47.056Z,1.40
2017-07-20T23:52:15.002Z,1.80
2017-07-20T23:54:42.942Z,1.97
2017-07-20T23:57:10.893Z,1.57
2017-07-20T23:59:38.852Z,1.67
